Pagina principale
METAR-TAF:

METAR-TAF

Aeroporti :

Aeroporto di Windhoek-Eros

Windhoek, Namibia

latitudine: 22-36-44S, longitudine: 017-04-50E, altezza: 1699 m

Osservazione

Il bollettino è stato emesso 8 ore e 21 minuti fa, alle 16:00 UTC
Vento 6 kt da est/nord-est
Temperature 24°C
Umidità 12%
Pressione 1026 hPa
Visibilità 10 km o più
nessuna nube inferiore a 1500 m e nessun cumulonembo

METAR: FYWE 301600Z 06006KT CAVOK 24/M07 Q1026

Ora: 02:21 (00:21 UTC)

Previsione

Il bollettino è stato emesso 4 ore e 21 minuti fa, alle 20:00 UTC
Previsione valida dal 30 alle 21 UTC al 31 alle 06 UTC
Vento 3 kt da est
Visibilità 10 km o più
nessuna nube inferiore a 1500 m e nessun cumulonembo

TAF: FYWE 302000Z 3021/3106 10003KT CAVOK

Osservazioni e previsioni meteorologiche di più di 4000 aeroporti (messaggi METAR e TAF).

Le stazioni disponibili sono rappresentate dai dischi gialli e rossi sulla carta.

Puntare il mouse per vedere il nome della stazione.

Clicca sopra per visualizzare le osservazioni e previsioni meteorologiche.

Per cambiare la mappa : fare clic sui pulsanti verdi con una croce nera per ingrandire, il pulsante verde con un trattino per diminuire, o sulla freccia verde per le mappe adiacenti.


METAR-TAF: